sensor_id;sensor_type;location;lat;lon;timestamp;P1;durP1;ratioP1;P2;durP2;ratioP2
65558;SDS011;52203;51.998;5.140;2023-04-01T00:00:16;24.17;;;7.75;;
65558;SDS011;52203;51.998;5.140;2023-04-01T00:02:42;21.20;;;8.00;;
65558;SDS011;52203;51.998;5.140;2023-04-01T00:05:07;25.88;;;8.43;;
65558;SDS011;52203;51.998;5.140;2023-04-01T00:07:35;26.17;;;8.85;;
65558;SDS011;52203;51.998;5.140;2023-04-01T00:10:01;21.25;;;7.95;;
65558;SDS011;52203;51.998;5.140;2023-04-01T00:12:28;25.13;;;9.15;;
65558;SDS011;52203;51.998;5.140;2023-04-01T00:14:53;28.33;;;8.40;;
65558;SDS011;52203;51.998;5.140;2023-04-01T00:17:19;25.05;;;8.80;;
65558;SDS011;52203;51.998;5.140;2023-04-01T00:19:45;22.73;;;8.52;;
65558;SDS011;52203;51.998;5.140;2023-04-01T00:22:10;24.73;;;9.65;;
65558;SDS011;52203;51.998;5.140;2023-04-01T00:24:37;22.95;;;8.68;;
65558;SDS011;52203;51.998;5.140;2023-04-01T00:27:03;24.35;;;9.23;;
65558;SDS011;52203;51.998;5.140;2023-04-01T00:29:28;23.98;;;9.25;;
65558;SDS011;52203;51.998;5.140;2023-04-01T00:31:55;28.33;;;9.65;;
65558;SDS011;52203;51.998;5.140;2023-04-01T00:34:22;26.77;;;9.52;;
65558;SDS011;52203;51.998;5.140;2023-04-01T00:36:48;28.20;;;10.00;;
65558;SDS011;52203;51.998;5.140;2023-04-01T00:39:15;32.00;;;10.13;;
65558;SDS011;52203;51.998;5.140;2023-04-01T00:41:40;28.00;;;9.60;;
65558;SDS011;52203;51.998;5.140;2023-04-01T00:44:20;26.38;;;8.35;;
65558;SDS011;52203;51.998;5.140;2023-04-01T00:46:47;24.85;;;9.20;;
65558;SDS011;52203;51.998;5.140;2023-04-01T00:49:14;28.38;;;9.63;;
65558;SDS011;52203;51.998;5.140;2023-04-01T00:51:42;29.20;;;9.80;;
65558;SDS011;52203;51.998;5.140;2023-04-01T00:54:13;24.55;;;8.30;;
65558;SDS011;52203;51.998;5.140;2023-04-01T00:56:48;23.95;;;8.88;;
65558;SDS011;52203;51.998;5.140;2023-04-01T00:59:22;28.27;;;8.25;;
65558;SDS011;52203;51.998;5.140;2023-04-01T01:01:50;22.75;;;7.88;;
65558;SDS011;52203;51.998;5.140;2023-04-01T01:23:42;23.52;;;10.35;;
65558;SDS011;52203;51.998;5.140;2023-04-01T01:32:06;28.52;;;9.45;;
65558;SDS011;52203;51.998;5.140;2023-04-01T01:37:45;22.92;;;9.30;;
65558;SDS011;52203;51.998;5.140;2023-04-01T01:40:15;25.02;;;8.27;;
65558;SDS011;52203;51.998;5.140;2023-04-01T01:42:42;19.05;;;7.72;;
65558;SDS011;52203;51.998;5.140;2023-04-01T01:45:11;22.48;;;9.05;;
65558;SDS011;52203;51.998;5.140;2023-04-01T01:47:43;25.10;;;9.00;;
65558;SDS011;52203;51.998;5.140;2023-04-01T01:50:10;19.23;;;7.80;;
65558;SDS011;52203;51.998;5.140;2023-04-01T01:52:37;16.98;;;6.30;;
65558;SDS011;52203;51.998;5.140;2023-04-01T01:55:02;10.90;;;4.88;;
65558;SDS011;52203;51.998;5.140;2023-04-01T01:57:29;14.00;;;5.00;;
65558;SDS011;52203;51.998;5.140;2023-04-01T02:00:00;13.27;;;4.57;;
65558;SDS011;52203;51.998;5.140;2023-04-01T02:02:32;13.50;;;5.50;;
65558;SDS011;52203;51.998;5.140;2023-04-01T02:04:58;19.73;;;6.38;;
65558;SDS011;52203;51.998;5.140;2023-04-01T02:07:26;14.05;;;5.50;;
65558;SDS011;52203;51.998;5.140;2023-04-01T02:09:56;13.68;;;5.20;;
65558;SDS011;52203;51.998;5.140;2023-04-01T02:12:22;11.52;;;4.97;;
65558;SDS011;52203;51.998;5.140;2023-04-01T02:14:51;11.00;;;4.60;;
65558;SDS011;52203;51.998;5.140;2023-04-01T02:17:24;12.52;;;4.47;;
65558;SDS011;52203;51.998;5.140;2023-04-01T02:19:52;8.10;;;3.60;;
65558;SDS011;52203;51.998;5.140;2023-04-01T02:22:24;11.57;;;4.45;;
65558;SDS011;52203;51.998;5.140;2023-04-01T02:24:57;13.45;;;4.60;;
65558;SDS011;52203;51.998;5.140;2023-04-01T02:27:26;10.45;;;4.68;;
65558;SDS011;52203;51.998;5.140;2023-04-01T02:29:52;11.02;;;5.00;;
65558;SDS011;52203;51.998;5.140;2023-04-01T02:32:18;12.27;;;5.70;;
65558;SDS011;52203;51.998;5.140;2023-04-01T02:34:45;13.02;;;5.30;;
65558;SDS011;52203;51.998;5.140;2023-04-01T02:37:12;12.10;;;4.82;;
65558;SDS011;52203;51.998;5.140;2023-04-01T02:39:38;13.40;;;4.97;;
65558;SDS011;52203;51.998;5.140;2023-04-01T02:42:04;10.25;;;4.55;;
65558;SDS011;52203;51.998;5.140;2023-04-01T02:44:30;9.32;;;4.30;;
65558;SDS011;52203;51.998;5.140;2023-04-01T02:46:56;12.15;;;5.18;;
65558;SDS011;52203;51.998;5.140;2023-04-01T02:49:21;11.10;;;4.40;;
65558;SDS011;52203;51.998;5.140;2023-04-01T02:51:47;12.05;;;4.65;;
65558;SDS011;52203;51.998;5.140;2023-04-01T02:54:12;11.27;;;4.70;;
65558;SDS011;52203;51.998;5.140;2023-04-01T02:56:38;12.63;;;5.88;;
65558;SDS011;52203;51.998;5.140;2023-04-01T02:59:03;17.15;;;5.53;;
65558;SDS011;52203;51.998;5.140;2023-04-01T03:01:29;10.85;;;5.25;;
65558;SDS011;52203;51.998;5.140;2023-04-01T03:03:54;11.98;;;5.80;;
65558;SDS011;52203;51.998;5.140;2023-04-01T03:06:20;14.68;;;5.00;;
65558;SDS011;52203;51.998;5.140;2023-04-01T03:08:45;9.25;;;4.93;;
65558;SDS011;52203;51.998;5.140;2023-04-01T03:11:11;12.85;;;5.63;;
65558;SDS011;52203;51.998;5.140;2023-04-01T03:13:37;13.82;;;5.47;;
65558;SDS011;52203;51.998;5.140;2023-04-01T03:16:03;11.85;;;5.75;;
65558;SDS011;52203;51.998;5.140;2023-04-01T03:18:28;12.32;;;5.05;;
65558;SDS011;52203;51.998;5.140;2023-04-01T03:20:54;12.50;;;5.55;;
65558;SDS011;52203;51.998;5.140;2023-04-01T03:23:20;13.30;;;5.00;;
65558;SDS011;52203;51.998;5.140;2023-04-01T03:25:46;14.90;;;6.05;;
65558;SDS011;52203;51.998;5.140;2023-04-01T03:28:11;13.07;;;5.22;;
65558;SDS011;52203;51.998;5.140;2023-04-01T03:30:38;16.85;;;6.50;;
65558;SDS011;52203;51.998;5.140;2023-04-01T03:33:04;13.95;;;5.35;;
65558;SDS011;52203;51.998;5.140;2023-04-01T03:35:30;15.15;;;5.78;;
65558;SDS011;52203;51.998;5.140;2023-04-01T03:37:55;12.52;;;5.25;;
65558;SDS011;52203;51.998;5.140;2023-04-01T03:40:21;14.90;;;5.72;;
65558;SDS011;52203;51.998;5.140;2023-04-01T03:42:47;14.93;;;6.80;;
65558;SDS011;52203;51.998;5.140;2023-04-01T03:45:14;20.35;;;7.00;;
65558;SDS011;52203;51.998;5.140;2023-04-01T03:47:40;16.65;;;6.85;;
65558;SDS011;52203;51.998;5.140;2023-04-01T03:50:06;20.85;;;7.93;;
65558;SDS011;52203;51.998;5.140;2023-04-01T03:52:33;22.55;;;8.02;;
65558;SDS011;52203;51.998;5.140;2023-04-01T03:54:59;23.63;;;7.90;;
65558;SDS011;52203;51.998;5.140;2023-04-01T03:57:25;18.52;;;7.10;;
65558;SDS011;52203;51.998;5.140;2023-04-01T03:59:51;18.83;;;8.18;;
65558;SDS011;52203;51.998;5.140;2023-04-01T04:02:16;19.48;;;7.47;;
65558;SDS011;52203;51.998;5.140;2023-04-01T04:04:42;20.30;;;7.95;;
65558;SDS011;52203;51.998;5.140;2023-04-01T04:07:07;15.70;;;6.65;;
65558;SDS011;52203;51.998;5.140;2023-04-01T04:09:33;16.73;;;6.82;;
65558;SDS011;52203;51.998;5.140;2023-04-01T04:11:59;15.70;;;7.40;;
65558;SDS011;52203;51.998;5.140;2023-04-01T04:14:25;16.98;;;6.97;;
65558;SDS011;52203;51.998;5.140;2023-04-01T04:16:51;20.00;;;7.03;;
65558;SDS011;52203;51.998;5.140;2023-04-01T04:19:17;16.60;;;6.05;;
65558;SDS011;52203;51.998;5.140;2023-04-01T04:21:42;16.77;;;6.97;;
65558;SDS011;52203;51.998;5.140;2023-04-01T04:24:08;15.45;;;6.53;;
65558;SDS011;52203;51.998;5.140;2023-04-01T04:26:33;16.77;;;6.65;;
65558;SDS011;52203;51.998;5.140;2023-04-01T04:28:59;17.02;;;6.95;;
65558;SDS011;52203;51.998;5.140;2023-04-01T04:31:27;17.95;;;7.22;;
65558;SDS011;52203;51.998;5.140;2023-04-01T04:33:52;17.10;;;7.03;;
65558;SDS011;52203;51.998;5.140;2023-04-01T04:36:19;19.02;;;7.28;;
65558;SDS011;52203;51.998;5.140;2023-04-01T04:38:45;16.70;;;6.25;;
65558;SDS011;52203;51.998;5.140;2023-04-01T04:41:11;16.05;;;7.13;;
65558;SDS011;52203;51.998;5.140;2023-04-01T04:43:38;16.83;;;7.82;;
65558;SDS011;52203;51.998;5.140;2023-04-01T04:46:08;19.23;;;7.85;;
65558;SDS011;52203;51.998;5.140;2023-04-01T04:48:35;21.70;;;8.27;;
65558;SDS011;52203;51.998;5.140;2023-04-01T04:51:01;18.60;;;7.28;;
65558;SDS011;52203;51.998;5.140;2023-04-01T04:53:28;18.85;;;8.30;;
65558;SDS011;52203;51.998;5.140;2023-04-01T04:55:54;20.73;;;8.35;;
65558;SDS011;52203;51.998;5.140;2023-04-01T04:58:20;19.95;;;8.07;;
65558;SDS011;52203;51.998;5.140;2023-04-01T05:00:46;21.75;;;8.85;;
65558;SDS011;52203;51.998;5.140;2023-04-01T05:03:11;22.23;;;9.18;;
65558;SDS011;52203;51.998;5.140;2023-04-01T05:05:38;20.02;;;8.98;;
65558;SDS011;52203;51.998;5.140;2023-04-01T05:08:04;25.73;;;9.30;;
65558;SDS011;52203;51.998;5.140;2023-04-01T05:10:33;21.10;;;8.75;;
65558;SDS011;52203;51.998;5.140;2023-04-01T05:12:58;24.33;;;9.38;;
65558;SDS011;52203;51.998;5.140;2023-04-01T05:15:24;23.85;;;9.52;;
65558;SDS011;52203;51.998;5.140;2023-04-01T05:17:49;24.25;;;9.75;;
65558;SDS011;52203;51.998;5.140;2023-04-01T05:20:16;22.55;;;9.60;;
65558;SDS011;52203;51.998;5.140;2023-04-01T05:22:41;25.25;;;9.60;;
65558;SDS011;52203;51.998;5.140;2023-04-01T05:25:07;25.67;;;10.80;;
65558;SDS011;52203;51.998;5.140;2023-04-01T05:27:33;27.25;;;9.90;;
65558;SDS011;52203;51.998;5.140;2023-04-01T05:29:58;30.65;;;11.98;;
65558;SDS011;52203;51.998;5.140;2023-04-01T05:32:24;24.42;;;10.38;;
65558;SDS011;52203;51.998;5.140;2023-04-01T05:34:50;29.02;;;11.50;;
65558;SDS011;52203;51.998;5.140;2023-04-01T05:37:16;25.10;;;11.45;;
65558;SDS011;52203;51.998;5.140;2023-04-01T05:39:42;27.67;;;11.35;;
65558;SDS011;52203;51.998;5.140;2023-04-01T05:42:07;25.92;;;11.10;;
65558;SDS011;52203;51.998;5.140;2023-04-01T05:44:34;24.45;;;10.05;;
65558;SDS011;52203;51.998;5.140;2023-04-01T05:47:00;21.98;;;9.85;;
65558;SDS011;52203;51.998;5.140;2023-04-01T05:49:26;25.77;;;10.57;;
65558;SDS011;52203;51.998;5.140;2023-04-01T05:51:51;26.40;;;11.45;;
65558;SDS011;52203;51.998;5.140;2023-04-01T05:54:17;24.38;;;10.35;;
65558;SDS011;52203;51.998;5.140;2023-04-01T05:56:43;23.73;;;10.60;;
65558;SDS011;52203;51.998;5.140;2023-04-01T05:59:09;24.58;;;10.05;;
65558;SDS011;52203;51.998;5.140;2023-04-01T06:01:36;24.52;;;9.80;;
65558;SDS011;52203;51.998;5.140;2023-04-01T06:04:02;29.83;;;11.23;;
65558;SDS011;52203;51.998;5.140;2023-04-01T06:06:29;28.75;;;11.80;;
65558;SDS011;52203;51.998;5.140;2023-04-01T06:08:58;25.02;;;10.70;;
65558;SDS011;52203;51.998;5.140;2023-04-01T06:20:01;27.45;;;11.00;;
65558;SDS011;52203;51.998;5.140;2023-04-01T06:31:05;24.10;;;10.00;;
65558;SDS011;52203;51.998;5.140;2023-04-01T06:42:08;27.50;;;10.48;;
65558;SDS011;52203;51.998;5.140;2023-04-01T06:45:34;27.90;;;9.73;;
65558;SDS011;52203;51.998;5.140;2023-04-01T06:50:28;27.70;;;10.45;;
65558;SDS011;52203;51.998;5.140;2023-04-01T06:53:12;28.15;;;9.77;;
65558;SDS011;52203;51.998;5.140;2023-04-01T06:55:55;25.08;;;10.25;;
65558;SDS011;52203;51.998;5.140;2023-04-01T06:58:26;23.58;;;10.25;;
65558;SDS011;52203;51.998;5.140;2023-04-01T07:00:59;25.58;;;10.10;;
65558;SDS011;52203;51.998;5.140;2023-04-01T07:03:41;19.92;;;8.85;;
65558;SDS011;52203;51.998;5.140;2023-04-01T07:06:14;18.83;;;8.27;;
65558;SDS011;52203;51.998;5.140;2023-04-01T07:08:49;23.00;;;8.52;;
65558;SDS011;52203;51.998;5.140;2023-04-01T07:11:28;21.15;;;8.50;;
65558;SDS011;52203;51.998;5.140;2023-04-01T07:17:05;18.23;;;7.78;;
65558;SDS011;52203;51.998;5.140;2023-04-01T07:19:47;22.40;;;7.18;;
65558;SDS011;52203;51.998;5.140;2023-04-01T07:24:46;21.38;;;8.43;;
65558;SDS011;52203;51.998;5.140;2023-04-01T07:27:13;20.40;;;8.93;;
65558;SDS011;52203;51.998;5.140;2023-04-01T07:29:39;20.88;;;8.93;;
65558;SDS011;52203;51.998;5.140;2023-04-01T07:44:13;25.33;;;9.80;;
65558;SDS011;52203;51.998;5.140;2023-04-01T07:52:23;20.95;;;8.55;;
65558;SDS011;52203;51.998;5.140;2023-04-01T07:55:14;23.70;;;10.18;;
65558;SDS011;52203;51.998;5.140;2023-04-01T07:58:33;22.63;;;10.10;;
65558;SDS011;52203;51.998;5.140;2023-04-01T08:06:27;24.83;;;10.23;;
65558;SDS011;52203;51.998;5.140;2023-04-01T08:15:36;22.77;;;10.38;;
65558;SDS011;52203;51.998;5.140;2023-04-01T08:21:02;26.33;;;10.80;;
65558;SDS011;52203;51.998;5.140;2023-04-01T08:23:33;28.40;;;11.13;;
65558;SDS011;52203;51.998;5.140;2023-04-01T08:28:52;27.45;;;10.15;;
65558;SDS011;52203;51.998;5.140;2023-04-01T08:31:29;26.52;;;10.20;;
65558;SDS011;52203;51.998;5.140;2023-04-01T08:34:01;30.05;;;10.80;;
65558;SDS011;52203;51.998;5.140;2023-04-01T08:36:35;26.17;;;10.27;;
65558;SDS011;52203;51.998;5.140;2023-04-01T08:39:07;25.73;;;11.37;;
65558;SDS011;52203;51.998;5.140;2023-04-01T08:52:34;28.35;;;11.57;;
65558;SDS011;52203;51.998;5.140;2023-04-01T08:58:02;27.50;;;10.63;;
65558;SDS011;52203;51.998;5.140;2023-04-01T09:00:57;23.05;;;10.02;;
65558;SDS011;52203;51.998;5.140;2023-04-01T09:09:18;25.90;;;10.68;;
65558;SDS011;52203;51.998;5.140;2023-04-01T09:15:27;29.42;;;10.75;;
65558;SDS011;52203;51.998;5.140;2023-04-01T09:28:54;22.58;;;10.38;;
65558;SDS011;52203;51.998;5.140;2023-04-01T09:40:10;23.13;;;10.30;;
65558;SDS011;52203;51.998;5.140;2023-04-01T09:48:14;22.77;;;9.98;;
65558;SDS011;52203;51.998;5.140;2023-04-01T09:50:50;21.45;;;9.07;;
65558;SDS011;52203;51.998;5.140;2023-04-01T09:53:34;21.55;;;10.23;;
65558;SDS011;52203;51.998;5.140;2023-04-01T10:04:56;19.10;;;9.32;;
65558;SDS011;52203;51.998;5.140;2023-04-01T10:10:20;17.75;;;8.68;;
65558;SDS011;52203;51.998;5.140;2023-04-01T10:27:06;19.30;;;7.80;;
65558;SDS011;52203;51.998;5.140;2023-04-01T10:30:02;17.70;;;8.75;;
65558;SDS011;52203;51.998;5.140;2023-04-01T10:50:07;15.63;;;7.78;;
65558;SDS011;52203;51.998;5.140;2023-04-01T10:55:29;15.63;;;8.52;;
65558;SDS011;52203;51.998;5.140;2023-04-01T11:10:40;12.90;;;7.68;;
65558;SDS011;52203;51.998;5.140;2023-04-01T11:21:43;13.60;;;7.20;;
65558;SDS011;52203;51.998;5.140;2023-04-01T11:29:33;13.23;;;6.72;;
65558;SDS011;52203;51.998;5.140;2023-04-01T11:32:34;8.10;;;4.43;;
65558;SDS011;52203;51.998;5.140;2023-04-01T11:41:07;7.00;;;3.50;;
65558;SDS011;52203;51.998;5.140;2023-04-01T11:54:55;5.45;;;3.08;;
65558;SDS011;52203;51.998;5.140;2023-04-01T12:11:53;7.30;;;3.95;;
65558;SDS011;52203;51.998;5.140;2023-04-01T12:15:13;8.63;;;4.70;;
65558;SDS011;52203;51.998;5.140;2023-04-01T12:20:50;9.10;;;5.00;;
65558;SDS011;52203;51.998;5.140;2023-04-01T12:23:30;9.05;;;4.55;;
65558;SDS011;52203;51.998;5.140;2023-04-01T12:32:15;5.78;;;2.90;;
65558;SDS011;52203;51.998;5.140;2023-04-01T12:42:55;9.40;;;4.57;;
65558;SDS011;52203;51.998;5.140;2023-04-01T12:45:54;11.38;;;5.45;;
65558;SDS011;52203;51.998;5.140;2023-04-01T13:08:40;12.32;;;5.35;;
65558;SDS011;52203;51.998;5.140;2023-04-01T13:13:58;14.48;;;5.13;;
65558;SDS011;52203;51.998;5.140;2023-04-01T13:20:07;14.52;;;6.03;;
65558;SDS011;52203;51.998;5.140;2023-04-01T13:36:29;5.63;;;2.40;;
65558;SDS011;52203;51.998;5.140;2023-04-01T13:39:05;4.90;;;2.47;;
65558;SDS011;52203;51.998;5.140;2023-04-01T13:41:38;6.88;;;3.03;;
65558;SDS011;52203;51.998;5.140;2023-04-01T13:47:22;8.90;;;3.85;;
65558;SDS011;52203;51.998;5.140;2023-04-01T13:52:49;10.10;;;4.55;;
65558;SDS011;52203;51.998;5.140;2023-04-01T14:12:13;5.80;;;2.97;;
65558;SDS011;52203;51.998;5.140;2023-04-01T14:15:18;4.75;;;2.45;;
65558;SDS011;52203;51.998;5.140;2023-04-01T14:18:06;6.47;;;2.83;;
65558;SDS011;52203;51.998;5.140;2023-04-01T14:23:39;6.57;;;3.20;;
65558;SDS011;52203;51.998;5.140;2023-04-01T14:26:34;6.55;;;2.92;;
65558;SDS011;52203;51.998;5.140;2023-04-01T14:29:24;5.72;;;2.90;;
65558;SDS011;52203;51.998;5.140;2023-04-01T14:32:10;6.70;;;3.15;;
65558;SDS011;52203;51.998;5.140;2023-04-01T14:34:59;5.47;;;2.65;;
65558;SDS011;52203;51.998;5.140;2023-04-01T14:38:02;5.88;;;2.80;;
65558;SDS011;52203;51.998;5.140;2023-04-01T14:40:43;7.13;;;3.10;;
65558;SDS011;52203;51.998;5.140;2023-04-01T14:49:47;7.22;;;3.63;;
65558;SDS011;52203;51.998;5.140;2023-04-01T14:52:17;8.45;;;4.00;;
65558;SDS011;52203;51.998;5.140;2023-04-01T14:54:53;6.70;;;3.60;;
65558;SDS011;52203;51.998;5.140;2023-04-01T14:57:25;9.40;;;4.07;;
65558;SDS011;52203;51.998;5.140;2023-04-01T15:05:36;11.40;;;5.60;;
65558;SDS011;52203;51.998;5.140;2023-04-01T15:08:29;10.70;;;5.10;;
65558;SDS011;52203;51.998;5.140;2023-04-01T15:13:51;10.02;;;5.07;;
65558;SDS011;52203;51.998;5.140;2023-04-01T15:17:13;10.20;;;5.05;;
65558;SDS011;52203;51.998;5.140;2023-04-01T15:22:50;15.40;;;6.30;;
65558;SDS011;52203;51.998;5.140;2023-04-01T15:28:06;11.05;;;5.15;;
65558;SDS011;52203;51.998;5.140;2023-04-01T15:30:53;11.27;;;5.65;;
65558;SDS011;52203;51.998;5.140;2023-04-01T15:33:39;9.93;;;5.03;;
65558;SDS011;52203;51.998;5.140;2023-04-01T15:55:27;9.35;;;3.90;;
65558;SDS011;52203;51.998;5.140;2023-04-01T16:00:58;6.00;;;2.78;;
65558;SDS011;52203;51.998;5.140;2023-04-01T16:03:33;5.85;;;3.10;;
65558;SDS011;52203;51.998;5.140;2023-04-01T16:06:29;6.75;;;3.55;;
65558;SDS011;52203;51.998;5.140;2023-04-01T16:14:22;6.43;;;3.28;;
65558;SDS011;52203;51.998;5.140;2023-04-01T16:25:19;6.80;;;3.30;;
65558;SDS011;52203;51.998;5.140;2023-04-01T16:36:21;5.65;;;2.53;;
65558;SDS011;52203;51.998;5.140;2023-04-01T16:44:43;6.00;;;2.90;;
65558;SDS011;52203;51.998;5.140;2023-04-01T16:49:51;5.28;;;2.90;;
65558;SDS011;52203;51.998;5.140;2023-04-01T16:52:34;4.93;;;2.75;;
65558;SDS011;52203;51.998;5.140;2023-04-01T16:55:15;5.47;;;2.70;;
65558;SDS011;52203;51.998;5.140;2023-04-01T16:57:50;4.82;;;2.78;;
65558;SDS011;52203;51.998;5.140;2023-04-01T17:03:15;6.07;;;2.30;;
65558;SDS011;52203;51.998;5.140;2023-04-01T17:21:53;3.55;;;1.70;;
65558;SDS011;52203;51.998;5.140;2023-04-01T17:35:48;5.00;;;2.72;;
65558;SDS011;52203;51.998;5.140;2023-04-01T17:41:03;5.80;;;3.10;;
65558;SDS011;52203;51.998;5.140;2023-04-01T17:46:53;7.78;;;3.90;;
65558;SDS011;52203;51.998;5.140;2023-04-01T17:49:37;6.47;;;3.42;;
65558;SDS011;52203;51.998;5.140;2023-04-01T18:00:19;5.50;;;3.00;;
65558;SDS011;52203;51.998;5.140;2023-04-01T18:03:13;4.68;;;3.17;;
65558;SDS011;52203;51.998;5.140;2023-04-01T18:09:03;5.38;;;3.35;;
65558;SDS011;52203;51.998;5.140;2023-04-01T18:11:59;5.68;;;2.88;;
65558;SDS011;52203;51.998;5.140;2023-04-01T18:14:48;6.72;;;2.92;;
65558;SDS011;52203;51.998;5.140;2023-04-01T18:17:38;7.00;;;3.92;;
65558;SDS011;52203;51.998;5.140;2023-04-01T18:20:15;5.65;;;3.38;;
65558;SDS011;52203;51.998;5.140;2023-04-01T18:22:53;11.88;;;4.43;;
65558;SDS011;52203;51.998;5.140;2023-04-01T18:25:43;7.68;;;4.32;;
65558;SDS011;52203;51.998;5.140;2023-04-01T18:30:41;7.57;;;3.90;;
65558;SDS011;52203;51.998;5.140;2023-04-01T18:33:16;6.90;;;3.75;;
65558;SDS011;52203;51.998;5.140;2023-04-01T18:35:54;8.63;;;3.85;;
65558;SDS011;52203;51.998;5.140;2023-04-01T18:38:33;7.47;;;4.40;;
65558;SDS011;52203;51.998;5.140;2023-04-01T18:52:13;9.93;;;5.25;;
65558;SDS011;52203;51.998;5.140;2023-04-01T18:57:47;8.90;;;4.47;;
65558;SDS011;52203;51.998;5.140;2023-04-01T19:00:26;10.93;;;5.20;;
65558;SDS011;52203;51.998;5.140;2023-04-01T19:05:44;9.00;;;5.07;;
65558;SDS011;52203;51.998;5.140;2023-04-01T19:13:50;10.23;;;5.28;;
65558;SDS011;52203;51.998;5.140;2023-04-01T19:29:49;10.65;;;5.85;;
65558;SDS011;52203;51.998;5.140;2023-04-01T19:35:19;10.82;;;5.43;;
65558;SDS011;52203;51.998;5.140;2023-04-01T19:38:12;9.80;;;5.30;;
65558;SDS011;52203;51.998;5.140;2023-04-01T20:04:40;9.27;;;5.53;;
65558;SDS011;52203;51.998;5.140;2023-04-01T20:07:10;10.77;;;6.13;;
65558;SDS011;52203;51.998;5.140;2023-04-01T20:12:21;11.55;;;7.05;;
65558;SDS011;52203;51.998;5.140;2023-04-01T20:14:57;13.38;;;6.75;;
65558;SDS011;52203;51.998;5.140;2023-04-01T20:17:24;13.35;;;7.70;;
65558;SDS011;52203;51.998;5.140;2023-04-01T20:25:23;12.55;;;5.88;;
65558;SDS011;52203;51.998;5.140;2023-04-01T20:35:49;12.93;;;6.88;;
65558;SDS011;52203;51.998;5.140;2023-04-01T20:38:58;12.50;;;5.93;;
65558;SDS011;52203;51.998;5.140;2023-04-01T20:41:54;14.27;;;6.50;;
65558;SDS011;52203;51.998;5.140;2023-04-01T20:47:36;14.10;;;7.20;;
65558;SDS011;52203;51.998;5.140;2023-04-01T20:56:11;12.35;;;6.72;;
65558;SDS011;52203;51.998;5.140;2023-04-01T21:11:40;15.52;;;7.68;;
65558;SDS011;52203;51.998;5.140;2023-04-01T21:14:57;14.02;;;6.95;;
65558;SDS011;52203;51.998;5.140;2023-04-01T21:17:53;15.50;;;7.72;;
65558;SDS011;52203;51.998;5.140;2023-04-01T21:21:01;13.63;;;6.93;;
65558;SDS011;52203;51.998;5.140;2023-04-01T21:39:53;13.38;;;5.88;;
65558;SDS011;52203;51.998;5.140;2023-04-01T22:13:23;12.88;;;6.18;;
65558;SDS011;52203;51.998;5.140;2023-04-01T22:29:52;14.48;;;6.38;;
65558;SDS011;52203;51.998;5.140;2023-04-01T22:39:14;13.65;;;7.00;;
65558;SDS011;52203;51.998;5.140;2023-04-01T22:42:41;14.98;;;6.70;;
65558;SDS011;52203;51.998;5.140;2023-04-01T22:48:44;14.88;;;6.75;;
65558;SDS011;52203;51.998;5.140;2023-04-01T22:56:57;13.02;;;6.30;;
65558;SDS011;52203;51.998;5.140;2023-04-01T23:02:43;12.95;;;6.95;;
65558;SDS011;52203;51.998;5.140;2023-04-01T23:05:31;12.27;;;7.25;;
65558;SDS011;52203;51.998;5.140;2023-04-01T23:11:35;13.02;;;6.47;;
65558;SDS011;52203;51.998;5.140;2023-04-01T23:19:26;13.15;;;6.93;;
65558;SDS011;52203;51.998;5.140;2023-04-01T23:26:13;15.15;;;7.32;;
65558;SDS011;52203;51.998;5.140;2023-04-01T23:38:54;17.30;;;8.50;;
65558;SDS011;52203;51.998;5.140;2023-04-01T23:41:32;17.50;;;8.27;;
65558;SDS011;52203;51.998;5.140;2023-04-01T23:50:55;20.75;;;9.35;;
